Alpharetta, Georgia
Current Conditions -  °F | °C
As of 2:53 AM on Monday 26 Jan 2015 (Local Time) from KPDK Reporting Station
Overcast Overcast  
Wind Chill:   Ceiling: 1600
Heat Index:   Visibility: 10mi
Dew Point:   Wind: 8mph
Humidity: 86%   Direction: 260°W
Pressure: 29.72"   Gusts: NA
Location:  34.08°N, 84.29°W
Report Text: KPDK 260753Z AUTO 26007KT 10SM BKN016 OVC095 06/04 A2972 RMK AO2 SLP067 T00610039 $
Loading
Personal Weather Stations






























Interactive Weather Map New forecast layout! Learn more

10-Day Weather Forecast

Advertisements
Track Severe Weather on mobile